Latest Coastal Weather Observations for Portland Harbour

IDS60701

Issued at 9:41 pm CST Sunday 24 September 2017 (issued every 10 minutes, with the page automatically refreshed every 10 minutes)

About coastal observations | Map of coastal stations | Coastal observations for SA | Marine services | Other Formats
Station Details ID: 090192 Name: PORTLAND NTC AWS Lat: -38.34 Lon: 141.61 Height: 0.0 m
Data from the previous 72 hours. | See also: Recent months for locations in South Australia
Date/Time
CST
Temp
°C
Wind Pressure Rain since
9am
mm
Weather Cloud Vis
km
Sea
Height
m
Swell
Dir  Spd
kts
Gust
kts
hPa Trend Height
m
Period
s
Dir
24/09:30pm 12.2 W 14 21 1002.3 - - - - - - - - -
24/09:00pm 12.1 W 11 21 1001.7 - - - - - - - - -
24/08:36pm 12.2 WSW 15 26 1001.3 - - - - - - - - -
24/08:30pm 12.5 W 15 23 1001.2 - - - - - - - - -
24/08:00pm 12.6 W 15 24 1000.5 - - - - - - - - -
24/07:44pm 12.3 W 19 29 1000.2 - - - - - - - - -
24/07:30pm 13.1 W 17 25 999.7 - - - - - - - - -
24/07:07pm 12.8 W 19 30 999.3 - - - - - - - - -
24/07:00pm 12.8 W 19 27 999.1 - - - - - - - - -
24/06:30pm 12.8 W 22 33 998.3 - - - - - - - - -
24/06:00pm 13.1 W 24 39 997.4 - - - - - - - - -
24/05:30pm 13.7 W 23 38 996.7 - - - - - - - - -
24/05:00pm 13.6 W 25 37 996.1 - - - - - - - - -
24/04:30pm 13.6 WNW 26 38 995.6 - - - - - - - - -
24/04:00pm 14.1 WNW 26 39 995.0 - - - - - - - - -
24/03:30pm 14.6 WNW 27 39 994.4 - - - - - - - - -
24/03:00pm 14.6 WNW 27 42 994.1 - - - - - - - - -
24/02:30pm 14.8 WNW 30 44 993.9 - - - - - - - - -
24/02:14pm 14.8 WNW 27 42 994.1 - - - - - - - - -
24/02:00pm 13.5 WNW 19 31 994.6 - - - - - - - - -
24/01:30pm 14.1 WNW 24 38 994.4 - - - - - - - - -
24/01:00pm 14.6 WNW 25 39 994.6 - - - - - - - - -
24/12:36pm 12.9 WNW 21 34 994.8 - - - - - - - - -
24/12:30pm 14.6 NW 22 30 994.6 - - - - - - - - -
24/12:01pm 14.4 NW 18 33 994.8 - - - - - - - - -
24/12:00pm 14.2 NW 18 28 994.9 - - - - - - - - -
24/11:35am 14.4 WNW 19 30 994.9 - - - - - - - - -
24/11:30am 14.6 WNW 20 30 994.9 - - - - - - - - -
24/11:00am 12.6 WNW 20 31 995.4 - - - - - - - - -
24/10:32am 14.1 WNW 22 36 995.3 - - - - - - - - -
24/10:30am 14.1 WNW 22 32 995.4 - - - - - - - - -
24/10:09am 13.5 NW 17 35 995.7 - - - - - - - - -
24/10:00am 13.4 NW 17 25 995.7 - - - - - - - - -
24/09:30am 12.6 WNW 21 34 995.8 - - - - - - - - -
24/09:02am 13.6 NW 20 33 995.5 - - - - - - - - -
24/09:00am 13.6 WNW 20 27 995.5 - - - - - - - - -
24/08:30am 13.0 NW 18 29 995.7 - - - - - - - - -
24/08:02am 12.4 NW 16 28 995.8 - - - - - - - - -
24/08:00am 12.5 NW 16 24 995.9 - - - - - - - - -
24/07:30am 11.7 NW 15 22 995.8 - - - - - - - - -
24/07:00am 11.1 NW 12 17 995.6 - - - - - - - - -
24/06:30am 10.5 NW 12 17 995.7 - - - - - - - - -
24/06:00am 10.4 NW 14 20 995.7 - - - - - - - - -
24/05:30am 10.4 NNW 13 18 995.4 - - - - - - - - -
24/05:00am 10.8 NW 14 23 995.4 - - - - - - - - -
24/04:43am 10.9 NW 15 29 995.5 - - - - - - - - -
24/04:30am 10.7 NW 15 21 995.4 - - - - - - - - -
24/04:00am 10.5 NNW 11 15 995.1 - - - - - - - - -
24/03:30am 10.2 NNW 12 17 995.2 - - - - - - - - -
24/03:21am 10.2 NW 13 21 995.4 - - - - - - - - -
24/03:08am 10.6 WNW 19 27 995.8 - - - - - - - - -
24/03:00am 11.4 NW 16 23 995.7 - - - - - - - - -
24/02:30am 12.1 NW 13 19 995.4 - - - - - - - - -
24/02:00am 12.0 NNW 13 20 995.6 - - - - - - - - -
24/01:30am 12.1 NW 13 18 996.2 - - - - - - - - -
24/01:00am 12.4 NW 13 19 996.8 - - - - - - - - -
24/12:30am 12.2 NW 11 16 997.1 - - - - - - - - -
24/12:00am 12.2 NW 12 16 997.3 - - - - - - - - -
 
Date/Time
CST
Temp
°C
Wind Pressure Rain since
9am
mm
Weather Cloud Vis
km
Sea
Height
m
Swell
Dir  Spd
kts
Gust
kts
hPa Trend Height
m
Period
s
Dir
23/11:30pm 12.6 NW 15 21 997.2 - - - - - - - - -
23/11:00pm 13.0 WNW 14 20 997.4 - - - - - - - - -
23/10:30pm 13.0 WNW 16 22 997.4 - - - - - - - - -
23/10:00pm 13.2 WNW 17 25 997.6 - - - - - - - - -
23/09:30pm 13.1 WNW 15 21 997.7 - - - - - - - - -
23/09:00pm 13.4 WNW 17 26 997.5 - - - - - - - - -
23/08:30pm 13.9 WNW 17 23 997.4 - - - - - - - - -
23/08:00pm 13.8 WNW 17 23 997.1 - - - - - - - - -
23/07:35pm 13.8 NW 16 26 996.9 - - - - - - - - -
23/07:30pm 13.8 NW 17 23 996.9 - - - - - - - - -
23/07:03pm 14.1 WNW 17 27 996.3 - - - - - - - - -
23/07:00pm 14.2 NW 17 25 996.3 - - - - - - - - -
23/06:43pm 14.3 WNW 16 28 996.1 - - - - - - - - -
23/06:30pm 14.3 WNW 16 24 995.7 - - - - - - - - -
23/06:00pm 14.6 WNW 18 27 995.4 - - - - - - - - -
23/05:30pm 15.2 WNW 22 34 994.9 - - - - - - - - -
23/05:00pm 15.6 WNW 20 31 994.5 - - - - - - - - -
23/04:30pm 15.9 WNW 24 41 993.8 - - - - - - - - -
23/04:28pm 15.9 WNW 22 41 993.8 - - - - - - - - -
23/04:00pm 15.6 WNW 19 31 993.8 - - - - - - - - -
23/03:32pm 14.9 W 17 28 993.3 - - - - - - - - -
23/03:30pm 14.7 W 18 28 993.2 - - - - - - - - -
23/03:03pm 14.4 W 16 27 993.2 - - - - - - - - -
23/03:00pm 14.5 WNW 15 23 993.3 - - - - - - - - -
23/02:30pm 13.9 W 15 23 993.5 - - - - - - - - -
23/02:00pm 14.0 WNW 13 19 993.6 - - - - - - - - -
23/01:30pm 14.3 WSW 13 19 993.6 - - - - - - - - -
23/01:00pm 15.1 W 17 29 993.2 - - - - - - - - -
23/12:30pm 15.9 WSW 18 29 993.4 - - - - - - - - -
23/12:28pm 16.0 WSW 18 28 993.4 - - - - - - - - -
23/12:00pm 18.3 WSW 13 19 992.4 - - - - - - - - -
23/11:30am 18.9 W 13 20 993.0 - - - - - - - - -
23/11:00am 15.2 NNE 5 9 993.0 - - - - - - - - -
23/10:30am 15.2 NNE 3 4 992.9 - - - - - - - - -
23/10:00am 14.6 ENE 5 7 992.3 - - - - - - - - -
23/09:30am 14.2 NNE 7 9 993.8 - - - - - - - - -
23/09:00am 14.0 ENE 5 6 993.8 - - - - - - - - -
23/08:30am 14.0 ENE 3 4 995.2 - - - - - - - - -
23/08:22am 14.0 NE 5 8 995.2 - - - - - - - - -
23/08:00am 14.0 WNW 4 8 997.2 - - - - - - - - -
23/07:30am 13.8 NNW 6 7 997.5 - - - - - - - - -
23/07:00am 14.0 NE 10 12 995.6 - - - - - - - - -
23/06:30am 14.0 N 5 9 997.0 - - - - - - - - -
23/06:00am 13.9 N 3 5 997.4 - - - - - - - - -
23/05:30am 14.0 WSW 8 11 998.2 - - - - - - - - -
23/05:00am 14.2 WSW 12 17 998.2 - - - - - - - - -
23/04:30am 14.3 W 14 21 1000.0 - - - - - - - - -
23/04:23am 14.3 WSW 12 19 1000.2 - - - - - - - - -
23/04:00am 13.4 W 6 10 998.2 - - - - - - - - -
23/03:30am 12.7 WSW 10 14 998.6 - - - - - - - - -
23/03:00am 13.6 NNE 6 7 997.3 - - - - - - - - -
23/02:30am 13.1 E 1 2 997.4 - - - - - - - - -
23/02:00am 13.4 W 2 4 999.1 - - - - - - - - -
23/01:30am 14.2 NNW 3 4 999.6 - - - - - - - - -
23/01:00am 14.8 N 5 7 999.8 - - - - - - - - -
23/12:30am 14.6 W 3 4 1000.5 - - - - - - - - -
23/12:00am 15.1 W 4 7 1000.7 - - - - - - - - -
 
Date/Time
CST
Temp
°C
Wind Pressure Rain since
9am
mm
Weather Cloud Vis
km
Sea
Height
m
Swell
Dir  Spd
kts
Gust
kts
hPa Trend Height
m
Period
s
Dir
22/11:30pm 15.7 W 5 7 1000.8 - - - - - - - - -
22/11:00pm 16.3 WSW 9 12 1001.0 - - - - - - - - -
22/10:30pm 17.5 W 8 12 1000.9 - - - - - - - - -
22/10:17pm 17.4 W 12 21 1000.6 - - - - - - - - -
22/10:00pm 17.6 N 5 7 1000.0 - - - - - - - - -
22/09:30pm 17.0 W 4 5 1000.7 - - - - - - - - -
22/09:00pm 18.0 NNW 8 9 1000.9 - - - - - - - - -
22/08:30pm 18.2 NNW 9 10 1001.2 - - - - - - - - -
22/08:00pm 17.5 N 4 5 1001.4 - - - - - - - - -
22/07:30pm 16.5 NNE 6 6 1001.6 - - - - - - - - -
22/07:00pm 17.2 NNE 5 5 1001.7 - - - - - - - - -
22/06:30pm 18.2 NNW 3 3 1001.7 - - - - - - - - -
22/06:00pm 18.1 SSW 3 4 1001.8 - - - - - - - - -
22/05:30pm 16.7 NE 2 5 1001.5 - - - - - - - - -
22/05:00pm 20.7 N 3 5 1001.7 - - - - - - - - -
22/04:30pm 22.0 NW 5 6 1002.2 - - - - - - - - -
22/04:00pm 22.1 NNW 7 12 1002.4 - - - - - - - - -
22/03:30pm 18.5 N 8 10 1002.0 - - - - - - - - -
22/03:00pm 19.1 NNE 13 16 1000.9 - - - - - - - - -
22/02:59pm 19.5 NNE 12 16 1001.0 - - - - - - - - -
22/02:30pm 18.5 NE 1 4 1003.1 - - - - - - - - -
22/02:00pm 16.0 ENE 4 7 1003.1 - - - - - - - - -
22/01:30pm 15.4 E 6 8 1003.6 - - - - - - - - -
22/01:00pm 15.0 ESE 8 9 1004.2 - - - - - - - - -
22/12:30pm 15.1 ESE 5 6 1004.4 - - - - - - - - -
22/12:00pm 15.3 ESE 4 6 1005.1 - - - - - - - - -
22/11:30am 15.5 NNE 7 11 1005.3 - - - - - - - - -
22/11:00am 15.4 NNE 10 11 1005.6 - - - - - - - - -
22/10:30am 14.8 N 9 12 1006.5 - - - - - - - - -
22/10:00am 12.3 ENE 4 6 1007.1 - - - - - - - - -
22/09:30am 12.3 NNE 3 5 1007.7 - - - - - - - - -
22/09:00am 11.6 N 6 7 1007.9 - - - - - - - - -
22/08:30am 11.0 NNE 6 8 1007.9 - - - - - - - - -
22/08:00am 10.4 N 5 7 1008.1 - - - - - - - - -
22/07:30am 8.7 CALM 0 2 1008.1 - - - - - - - - -
22/07:00am 7.9 SW 2 3 1008.3 - - - - - - - - -
22/06:30am 7.7 SW 3 3 1008.4 - - - - - - - - -
22/06:00am 8.0 SSW 2 4 1008.3 - - - - - - - - -
22/05:30am 9.6 NNW 3 6 1008.3 - - - - - - - - -
22/05:00am 9.2 NNW 1 4 1008.5 - - - - - - - - -
22/04:30am 7.7 SSW 2 4 1008.4 - - - - - - - - -
22/04:00am 8.0 W 2 3 1008.5 - - - - - - - - -
22/03:30am 7.4 WSW 3 4 1008.9 - - - - - - - - -
22/03:00am 7.6 SW 3 4 1009.0 - - - - - - - - -
22/02:30am 7.7 WSW 3 5 1009.3 - - - - - - - - -
22/02:00am 7.9 WSW 3 4 1009.6 - - - - - - - - -
22/01:30am 8.6 WNW 3 5 1009.8 - - - - - - - - -
22/01:00am 8.3 W 2 4 1010.4 - - - - - - - - -
22/12:30am 8.7 WNW 3 5 1010.6 - - - - - - - - -
22/12:00am 9.3 WSW 2 3 1010.6 - - - - - - - - -
 
Date/Time
CST
Temp
°C
Wind Pressure Rain since
9am
mm
Weather Cloud Vis
km
Sea
Height
m
Swell
Dir  Spd
kts
Gust
kts
hPa Trend Height
m
Period
s
Dir
21/11:30pm 9.5 SW 1 3 1010.7 - - - - - - - - -
21/11:00pm 9.7 SW 2 3 1011.1 - - - - - - - - -
21/10:30pm 9.7 WNW 4 5 1011.1 - - - - - - - - -
21/10:00pm 10.1 SW 2 4 1011.3 - - - - - - - - -
21/09:30pm 10.6 NW 4 5 1011.5 - - - - - - - - -

Other Formats:

Comma delimited format used in spreadsheet applications
http://www.bom.gov.au/fwo/IDS60701/IDS60701.95826.axf

JavaScript Object Notation format (JSON) in row-major order
http://www.bom.gov.au/fwo/IDS60701/IDS60701.95826.json